Overcast Current Weather (METAR) For Bournemouth Airport

All times on the weather descriptions are local

Observed at 01:50 - (46 mins ago)

Overcast

12°C

Overcast
Clouds: Overcast at 2,900ft
Wind: 240° at 06 knots
Visibility: Greater than 10km
QNH: 1023
Dew Point: 8°C
Runway in Use: Runway 26

Sunrise Today: 07:42
Sunset Today: 18:00

Forecast Weather (TAF) For Bournemouth Airport

Issued at 01:00 - (7 days 22 hrs ago)


Runway in Use: Unable to determine, wind is clam

Forecast valid until 01:00 on Friday

METAR/TAF RAW METAR / TAF

EGHH 230050Z 24006KT 9999 OVC029 12/08 Q1023

Weather Widget

Put weather from any of our airports on your website with our weather widget.

Find Another Search

Airport Search


Please Wait Please Wait - Loading
Close
Close

Login

Username:

Password:

Remember Me:

Remember me on this computer

Forgotten your password? Get a reset password sent to your registered e-mail address

Close

User Private Message

Subject:

Message: